Terminal Aerodrome Forecast
Issued by NWS

Current Version | Previous Version | Graphics & Text | Print | Product List | Glossary On
Versions: 1 2 3 4 5 6 7 8 9 10 11 12 13 14 15 16 17 18 19 20 21 22 23 24 25 26 27 28 29 30 31 32
000
FTUS41 KRNK 261736
TAFLWB
TAF
KLWB 261736Z 2618/2718 26010KT P6SM BKN050
     FM262200 29008KT P6SM VCTS BKN045CB
      TEMPO 2622/2702 34010G25KT 3SM -TSRA OVC040CB
     FM270200 VRB05KT P6SM -SHRA BKN025
     FM270600 VRB03KT 3SM BR VCSH BKN015
     FM271300 VRB03KT P6SM -TSRA BKN025CB=

USA.gov is the U.S. government's official web portal to all federal, state and local government web resources and services.